createdAt,value
2018-12-08T00:00:48.012Z,52.10
2018-12-08T00:03:15.137Z,52.10
2018-12-08T00:05:42.237Z,52.00
2018-12-08T00:08:09.348Z,52.10
2018-12-08T00:10:36.445Z,52.20
2018-12-08T00:13:03.541Z,52.10
2018-12-08T00:15:30.659Z,52.10
2018-12-08T00:17:57.797Z,52.00
2018-12-08T00:20:24.904Z,52.10
2018-12-08T00:22:52.020Z,52.10
2018-12-08T00:25:19.103Z,52.00
2018-12-08T00:27:46.217Z,52.10
2018-12-08T00:30:24.971Z,52.00
2018-12-08T00:32:52.053Z,52.20
2018-12-08T00:35:19.139Z,52.60
2018-12-08T00:37:46.253Z,52.10
2018-12-08T00:40:13.383Z,52.00
2018-12-08T00:42:40.499Z,52.10
2018-12-08T00:45:07.595Z,52.00
2018-12-08T00:47:34.711Z,52.10
2018-12-08T00:50:01.809Z,51.90
2018-12-08T00:52:28.929Z,52.10
2018-12-08T00:54:56.057Z,51.90
2018-12-08T00:57:23.172Z,51.90
2018-12-08T00:59:50.273Z,51.80
2018-12-08T01:02:17.392Z,51.80
2018-12-08T01:04:44.497Z,51.80
2018-12-08T01:07:11.592Z,51.80
2018-12-08T01:09:38.699Z,51.70
2018-12-08T01:12:05.810Z,51.70
2018-12-08T01:14:33.141Z,51.70
2018-12-08T01:17:00.232Z,51.70
2018-12-08T01:19:27.305Z,51.60
2018-12-08T01:21:54.403Z,51.50
2018-12-08T01:24:21.538Z,51.50
2018-12-08T01:26:48.619Z,51.50
2018-12-08T01:29:15.714Z,51.50
2018-12-08T01:31:42.804Z,51.50
2018-12-08T01:34:09.929Z,51.40
2018-12-08T01:36:37.041Z,51.40
2018-12-08T01:39:05.912Z,51.40
2018-12-08T01:41:33.005Z,51.40
2018-12-08T01:44:00.108Z,51.40
2018-12-08T01:46:27.201Z,51.30
2018-12-08T01:48:54.400Z,51.40
2018-12-08T01:51:21.440Z,51.30
2018-12-08T01:53:48.551Z,51.40
2018-12-08T01:56:15.645Z,51.30
2018-12-08T01:58:42.769Z,51.30
2018-12-08T02:01:09.860Z,51.30
2018-12-08T02:03:36.981Z,51.30
2018-12-08T02:06:04.100Z,51.30
2018-12-08T02:08:31.192Z,51.30
2018-12-08T02:10:58.287Z,51.30
2018-12-08T02:13:25.372Z,51.20
2018-12-08T02:15:52.483Z,51.20
2018-12-08T02:18:19.566Z,51.20
2018-12-08T02:20:46.653Z,51.10
2018-12-08T02:23:13.755Z,51.10
2018-12-08T02:25:40.894Z,51.20
2018-12-08T02:28:08.022Z,51.10
2018-12-08T02:30:35.125Z,51.10
2018-12-08T02:33:02.276Z,51.10
2018-12-08T02:35:29.374Z,51.00
2018-12-08T02:37:56.471Z,51.00
2018-12-08T02:40:23.601Z,51.00
2018-12-08T02:42:50.680Z,51.00
2018-12-08T02:45:17.828Z,51.00
2018-12-08T02:47:44.925Z,50.90
2018-12-08T02:50:12.028Z,50.90
2018-12-08T02:52:39.097Z,50.90
2018-12-08T02:55:06.209Z,50.90
2018-12-08T02:57:33.304Z,50.90
2018-12-08T03:00:00.436Z,50.80
2018-12-08T03:02:27.540Z,50.80
2018-12-08T03:04:54.741Z,50.80
2018-12-08T03:07:21.727Z,50.70
2018-12-08T03:09:48.798Z,50.70
2018-12-08T03:12:15.882Z,50.70
2018-12-08T03:14:43.005Z,50.70
2018-12-08T03:17:10.108Z,50.70
2018-12-08T03:19:37.210Z,50.70
2018-12-08T03:22:04.321Z,50.70
2018-12-08T03:24:31.429Z,50.60
2018-12-08T03:26:58.564Z,50.60
2018-12-08T03:29:25.646Z,50.60
2018-12-08T03:31:52.729Z,50.60
2018-12-08T03:34:19.852Z,50.60
2018-12-08T03:36:46.977Z,50.60
2018-12-08T03:39:14.065Z,50.50
2018-12-08T03:41:41.148Z,50.50
2018-12-08T03:44:08.292Z,50.50
2018-12-08T03:46:35.398Z,50.50
2018-12-08T03:49:02.516Z,50.40
2018-12-08T03:51:29.679Z,50.40
2018-12-08T03:53:56.735Z,50.30
2018-12-08T03:56:23.846Z,50.30
2018-12-08T03:58:50.992Z,50.30
2018-12-08T04:01:18.114Z,50.30
2018-12-08T04:03:45.247Z,50.30
2018-12-08T04:06:12.346Z,50.20
2018-12-08T04:08:39.444Z,50.20
2018-12-08T04:11:06.529Z,50.20
2018-12-08T04:13:33.707Z,50.10
2018-12-08T04:16:00.834Z,50.10
2018-12-08T04:18:27.943Z,50.10
2018-12-08T04:20:55.033Z,50.10
2018-12-08T04:23:22.153Z,50.00
2018-12-08T04:25:49.253Z,50.00
2018-12-08T04:28:16.363Z,50.00
2018-12-08T04:30:43.473Z,50.00
2018-12-08T04:33:10.584Z,49.90
2018-12-08T04:35:37.684Z,49.90
2018-12-08T04:38:04.805Z,49.90
2018-12-08T04:40:31.924Z,49.90
2018-12-08T04:42:59.018Z,49.90
2018-12-08T04:45:26.111Z,49.90
2018-12-08T04:47:53.199Z,49.90
2018-12-08T04:50:20.292Z,49.90
2018-12-08T04:52:47.396Z,49.80
2018-12-08T04:55:14.503Z,49.70
2018-12-08T04:57:41.600Z,49.80
2018-12-08T05:00:08.713Z,49.70
2018-12-08T05:02:35.790Z,49.70
2018-12-08T05:05:02.901Z,49.70
2018-12-08T05:07:29.981Z,49.70
2018-12-08T05:09:57.064Z,49.70
2018-12-08T05:12:24.166Z,49.70
2018-12-08T05:14:51.250Z,49.70
2018-12-08T05:17:18.381Z,49.60
2018-12-08T05:19:45.504Z,49.60
2018-12-08T05:22:12.616Z,49.60
2018-12-08T05:24:39.713Z,49.60
2018-12-08T05:27:06.809Z,49.60
2018-12-08T05:29:33.940Z,49.60
2018-12-08T05:32:01.103Z,49.70
2018-12-08T05:34:28.215Z,49.60
2018-12-08T05:36:55.332Z,49.60
2018-12-08T05:39:22.475Z,49.50
2018-12-08T05:41:49.580Z,49.60
2018-12-08T05:44:16.670Z,49.50
2018-12-08T05:46:43.785Z,49.50
2018-12-08T05:49:10.875Z,49.50
2018-12-08T05:51:37.980Z,49.50
2018-12-08T05:54:05.096Z,49.50
2018-12-08T05:56:32.244Z,49.50
2018-12-08T05:58:59.320Z,49.40
2018-12-08T06:01:26.420Z,49.50
2018-12-08T06:03:53.525Z,49.40
2018-12-08T06:06:20.656Z,49.40
2018-12-08T06:08:47.760Z,49.40
2018-12-08T06:11:14.873Z,49.40
2018-12-08T06:13:41.981Z,49.30
2018-12-08T06:16:09.117Z,49.40
2018-12-08T06:18:36.227Z,49.30
2018-12-08T06:21:03.326Z,49.30
2018-12-08T06:23:30.412Z,49.30
2018-12-08T06:26:00.684Z,49.30
2018-12-08T06:28:30.683Z,49.30
2018-12-08T06:30:57.789Z,49.30
2018-12-08T06:33:24.875Z,49.30
2018-12-08T06:35:52.004Z,49.30
2018-12-08T06:38:19.104Z,49.20
2018-12-08T06:40:46.196Z,49.20
2018-12-08T06:43:13.284Z,49.20
2018-12-08T06:45:40.391Z,49.20
2018-12-08T06:48:07.528Z,49.20
2018-12-08T06:50:34.641Z,49.00
2018-12-08T06:53:01.761Z,49.20
2018-12-08T06:55:28.872Z,49.20
2018-12-08T06:57:56.011Z,49.10
2018-12-08T07:00:23.096Z,49.10
2018-12-08T07:02:50.187Z,49.10
2018-12-08T07:05:17.284Z,49.00
2018-12-08T07:07:44.393Z,49.10
2018-12-08T07:10:11.457Z,49.10
2018-12-08T07:12:38.588Z,49.10
2018-12-08T07:15:05.692Z,49.10
2018-12-08T07:17:32.830Z,49.10
2018-12-08T07:19:59.926Z,49.00
2018-12-08T07:22:27.044Z,49.10
2018-12-08T07:24:54.131Z,49.00
2018-12-08T07:27:21.228Z,49.00
2018-12-08T07:29:48.324Z,49.00
2018-12-08T07:32:15.427Z,49.00
2018-12-08T07:34:42.592Z,49.00
2018-12-08T07:37:09.713Z,48.90
2018-12-08T07:39:36.813Z,49.00
2018-12-08T07:42:03.921Z,48.90
2018-12-08T07:44:31.009Z,48.80
2018-12-08T07:46:58.105Z,48.90
2018-12-08T07:49:25.216Z,48.90
2018-12-08T07:51:52.320Z,48.80
2018-12-08T07:54:19.419Z,48.90
2018-12-08T07:56:46.543Z,48.90
2018-12-08T07:59:13.696Z,48.90
2018-12-08T08:01:40.744Z,49.00
2018-12-08T08:04:07.829Z,49.00
2018-12-08T08:06:34.933Z,48.90
2018-12-08T08:09:02.053Z,48.90
2018-12-08T08:11:29.128Z,48.90
2018-12-08T08:13:56.214Z,48.90
2018-12-08T08:16:23.320Z,48.90
2018-12-08T08:18:50.433Z,48.90
2018-12-08T08:21:17.532Z,48.90
2018-12-08T08:23:44.708Z,48.90
2018-12-08T08:26:11.782Z,49.00
2018-12-08T08:28:38.898Z,48.90
2018-12-08T08:31:05.987Z,48.90
2018-12-08T08:33:33.108Z,48.90
2018-12-08T08:36:00.201Z,48.80
2018-12-08T08:38:27.309Z,48.90
2018-12-08T08:40:54.419Z,48.80
2018-12-08T08:43:21.525Z,48.80
2018-12-08T08:45:48.620Z,48.80
2018-12-08T08:48:15.720Z,48.90
2018-12-08T08:50:42.832Z,48.80
2018-12-08T08:53:09.941Z,48.90
2018-12-08T08:55:37.042Z,48.80
2018-12-08T08:58:04.130Z,48.80
2018-12-08T09:00:31.220Z,48.80
2018-12-08T09:02:58.343Z,48.80
2018-12-08T09:05:25.433Z,48.80
2018-12-08T09:07:52.541Z,48.80
2018-12-08T09:10:19.662Z,48.70
2018-12-08T09:12:46.749Z,48.70
2018-12-08T09:15:13.842Z,48.70
2018-12-08T09:17:40.939Z,48.70
2018-12-08T09:20:09.769Z,48.70
2018-12-08T09:22:37.085Z,48.70
2018-12-08T09:25:04.448Z,48.70
2018-12-08T09:27:31.564Z,48.70
2018-12-08T09:29:58.647Z,48.70
2018-12-08T09:32:25.745Z,48.70
2018-12-08T09:34:52.856Z,48.70
2018-12-08T09:37:19.957Z,48.70
2018-12-08T09:39:47.076Z,48.70
2018-12-08T09:42:14.184Z,48.70
2018-12-08T09:44:41.304Z,48.70
2018-12-08T09:47:08.421Z,48.70
2018-12-08T09:49:35.529Z,48.70
2018-12-08T09:52:02.657Z,48.70
2018-12-08T09:54:29.761Z,48.70
2018-12-08T09:56:56.856Z,48.70
2018-12-08T09:59:23.968Z,48.70
2018-12-08T10:01:51.073Z,48.60
2018-12-08T10:04:18.192Z,48.70
2018-12-08T10:06:45.305Z,48.70
2018-12-08T10:09:12.417Z,48.70
2018-12-08T10:11:39.501Z,48.70
2018-12-08T10:14:06.604Z,48.70
2018-12-08T10:16:33.698Z,48.70
2018-12-08T10:19:00.788Z,48.70
2018-12-08T10:21:27.903Z,48.70
2018-12-08T10:23:55.037Z,48.60
2018-12-08T10:26:22.145Z,48.70
2018-12-08T10:28:49.261Z,48.70
2018-12-08T10:31:16.369Z,48.60
2018-12-08T10:33:43.520Z,48.60
2018-12-08T10:36:10.626Z,48.60
2018-12-08T10:38:37.747Z,48.70
2018-12-08T10:41:04.841Z,48.60
2018-12-08T10:43:31.922Z,48.70
2018-12-08T10:45:59.048Z,48.60
2018-12-08T10:48:26.177Z,48.60
2018-12-08T10:50:53.293Z,48.60
2018-12-08T10:53:20.400Z,48.60
2018-12-08T10:55:47.504Z,48.70
2018-12-08T10:58:14.592Z,48.70
2018-12-08T11:00:47.448Z,48.60
2018-12-08T11:03:20.430Z,48.60
2018-12-08T11:05:47.576Z,48.60
2018-12-08T11:08:14.678Z,48.60
2018-12-08T11:10:41.792Z,48.60
2018-12-08T11:13:08.890Z,48.60
2018-12-08T11:15:36.010Z,48.60
2018-12-08T11:18:03.137Z,48.60
2018-12-08T11:20:30.264Z,49.30
2018-12-08T11:22:57.368Z,48.60
2018-12-08T11:25:24.469Z,48.60
2018-12-08T11:27:51.580Z,48.50
2018-12-08T11:30:18.700Z,48.60
2018-12-08T11:32:45.862Z,48.70
2018-12-08T11:35:12.996Z,48.60
2018-12-08T11:37:40.108Z,48.60
2018-12-08T11:40:07.246Z,48.60
2018-12-08T11:42:34.355Z,48.60
2018-12-08T11:45:01.502Z,48.60
2018-12-08T11:47:28.604Z,48.60
2018-12-08T11:49:55.704Z,48.60
2018-12-08T11:52:22.813Z,48.60
2018-12-08T11:54:49.933Z,48.60
2018-12-08T11:57:17.030Z,48.60
2018-12-08T11:59:44.132Z,48.60
2018-12-08T12:02:16.527Z,48.60
2018-12-08T12:04:38.336Z,48.60
2018-12-08T12:07:05.458Z,48.60
2018-12-08T12:09:32.579Z,48.60
2018-12-08T12:11:59.682Z,48.60
2018-12-08T12:14:40.131Z,48.70
2018-12-08T12:17:07.299Z,48.70
2018-12-08T12:19:34.441Z,48.60
2018-12-08T12:22:01.534Z,48.60
2018-12-08T12:24:28.633Z,48.60
2018-12-08T12:26:55.730Z,48.70
2018-12-08T12:29:22.821Z,48.60
2018-12-08T12:31:49.917Z,48.60
2018-12-08T12:34:17.029Z,48.60
2018-12-08T12:36:44.160Z,48.60
2018-12-08T12:39:11.261Z,48.60
2018-12-08T12:41:38.397Z,48.60
2018-12-08T12:44:05.514Z,48.70
2018-12-08T12:46:32.640Z,48.60
2018-12-08T12:48:59.810Z,48.60
2018-12-08T12:51:26.954Z,48.60
2018-12-08T12:53:54.060Z,48.60
2018-12-08T12:56:21.221Z,48.60
2018-12-08T12:58:48.340Z,48.60
2018-12-08T13:01:15.452Z,48.60
2018-12-08T13:03:42.627Z,48.60
2018-12-08T13:06:09.657Z,48.60
2018-12-08T13:08:36.771Z,48.60
2018-12-08T13:11:03.857Z,48.60
2018-12-08T13:13:30.949Z,48.60
2018-12-08T13:15:58.031Z,48.60
2018-12-08T13:18:25.152Z,48.60
2018-12-08T13:20:52.323Z,48.50
2018-12-08T13:23:19.521Z,48.60
2018-12-08T13:25:46.600Z,48.60
2018-12-08T13:28:13.677Z,48.50
2018-12-08T13:30:40.789Z,48.60
2018-12-08T13:33:14.613Z,48.60
2018-12-08T13:35:49.912Z,48.60
2018-12-08T13:38:17.002Z,48.60
2018-12-08T13:40:44.090Z,48.60
2018-12-08T13:43:11.188Z,49.20
2018-12-08T13:45:38.307Z,48.60
2018-12-08T13:48:05.384Z,48.60
2018-12-08T13:50:32.480Z,48.60
2018-12-08T13:52:59.595Z,48.60
2018-12-08T13:55:26.696Z,48.60
2018-12-08T13:57:53.765Z,48.60
2018-12-08T14:00:20.872Z,48.60
2018-12-08T14:02:47.991Z,48.60
2018-12-08T14:05:15.090Z,48.70
2018-12-08T14:07:42.232Z,48.60
2018-12-08T14:10:09.368Z,48.60
2018-12-08T14:12:36.481Z,48.60
2018-12-08T14:15:03.594Z,48.70
2018-12-08T14:17:30.701Z,49.30
2018-12-08T14:20:08.228Z,48.70
2018-12-08T14:22:35.337Z,48.70
2018-12-08T14:25:02.443Z,48.80
2018-12-08T14:27:29.552Z,48.70
2018-12-08T14:29:56.667Z,48.80
2018-12-08T14:32:23.768Z,48.80
2018-12-08T14:34:50.881Z,48.80
2018-12-08T14:37:18.015Z,48.80
2018-12-08T14:39:45.161Z,48.80
2018-12-08T14:42:12.286Z,48.80
2018-12-08T14:44:39.377Z,48.80
2018-12-08T14:47:06.464Z,48.80
2018-12-08T14:49:33.533Z,48.80
2018-12-08T14:52:00.653Z,48.90
2018-12-08T14:54:27.718Z,48.90
2018-12-08T14:56:54.798Z,48.90
2018-12-08T14:59:21.942Z,48.90
2018-12-08T15:01:49.040Z,48.90
2018-12-08T15:04:16.138Z,48.90
2018-12-08T15:06:43.224Z,48.90
2018-12-08T15:09:10.334Z,48.90
2018-12-08T15:11:37.440Z,48.90
2018-12-08T15:14:04.527Z,48.90
2018-12-08T15:16:31.679Z,49.00
2018-12-08T15:18:58.798Z,49.00
2018-12-08T15:21:25.960Z,49.00
2018-12-08T15:23:53.128Z,49.00
2018-12-08T15:26:20.216Z,49.00
2018-12-08T15:28:47.318Z,49.10
2018-12-08T15:31:14.425Z,49.00
2018-12-08T15:33:41.583Z,49.00
2018-12-08T15:36:08.673Z,49.00
2018-12-08T15:38:35.790Z,49.00
2018-12-08T15:41:02.895Z,49.10
2018-12-08T15:43:30.029Z,49.00
2018-12-08T15:45:57.176Z,49.10
2018-12-08T15:48:24.293Z,49.10
2018-12-08T15:50:51.397Z,49.10
2018-12-08T15:53:18.526Z,49.10
2018-12-08T15:55:45.635Z,49.10
2018-12-08T15:58:12.748Z,49.10
2018-12-08T16:00:39.882Z,49.10
2018-12-08T16:03:06.962Z,49.10
2018-12-08T16:05:34.064Z,49.10
2018-12-08T16:08:01.181Z,49.20
2018-12-08T16:10:28.270Z,49.20
2018-12-08T16:12:55.384Z,49.10
2018-12-08T16:15:22.472Z,49.10
2018-12-08T16:17:49.576Z,49.10
2018-12-08T16:20:16.704Z,49.10
2018-12-08T16:22:43.795Z,49.20
2018-12-08T16:25:10.893Z,49.20
2018-12-08T16:27:38.005Z,49.00
2018-12-08T16:30:06.939Z,49.20
2018-12-08T16:32:34.053Z,49.20
2018-12-08T16:35:01.176Z,49.20
2018-12-08T16:37:28.271Z,49.20
2018-12-08T16:39:55.366Z,49.20
2018-12-08T16:42:22.469Z,49.20
2018-12-08T16:44:49.578Z,49.20
2018-12-08T16:47:16.723Z,49.20
2018-12-08T16:49:43.817Z,49.20
2018-12-08T16:52:10.897Z,49.20
2018-12-08T16:54:38.007Z,49.20
2018-12-08T16:57:05.081Z,49.20
2018-12-08T16:59:32.185Z,49.20
2018-12-08T17:01:59.290Z,49.20
2018-12-08T17:04:26.371Z,49.10
2018-12-08T17:06:53.456Z,49.10
2018-12-08T17:09:20.542Z,49.10
2018-12-08T17:11:47.610Z,49.10
2018-12-08T17:14:14.720Z,49.10
2018-12-08T17:16:41.815Z,49.20
2018-12-08T17:19:08.941Z,49.20
2018-12-08T17:24:08.904Z,49.20
2018-12-08T17:26:36.023Z,49.20
2018-12-08T17:29:03.132Z,49.10
2018-12-08T17:31:30.216Z,49.10
2018-12-08T17:33:57.296Z,49.10
2018-12-08T17:36:24.398Z,49.20
2018-12-08T17:38:51.487Z,49.10
2018-12-08T17:41:18.586Z,49.10
2018-12-08T17:43:45.695Z,49.20
2018-12-08T17:46:12.804Z,49.10
2018-12-08T17:48:39.895Z,49.20
2018-12-08T17:51:07.168Z,49.10
2018-12-08T17:53:34.272Z,49.10
2018-12-08T17:56:01.368Z,49.10
2018-12-08T17:58:28.454Z,49.10
2018-12-08T18:00:55.590Z,49.10
2018-12-08T18:03:22.688Z,49.10
2018-12-08T18:05:49.769Z,49.10
2018-12-08T18:08:16.880Z,49.10
2018-12-08T18:10:43.950Z,49.00
2018-12-08T18:13:11.058Z,49.10
2018-12-08T18:15:38.156Z,49.10
2018-12-08T18:18:05.260Z,49.10
2018-12-08T18:20:32.373Z,49.10
2018-12-08T18:22:59.525Z,49.10
2018-12-08T18:25:26.628Z,49.10
2018-12-08T18:27:53.737Z,49.10
2018-12-08T18:30:20.848Z,49.10
2018-12-08T18:32:47.924Z,49.10
2018-12-08T18:35:15.032Z,49.10
2018-12-08T18:37:42.140Z,49.10
2018-12-08T18:40:09.264Z,49.10
2018-12-08T18:42:36.352Z,49.10
2018-12-08T18:45:03.504Z,49.10
2018-12-08T18:47:30.607Z,49.00
2018-12-08T18:49:57.707Z,49.00
2018-12-08T18:52:24.799Z,49.10
2018-12-08T18:54:51.898Z,49.00
2018-12-08T18:57:18.997Z,49.10
2018-12-08T18:59:46.176Z,49.20
2018-12-08T19:02:13.279Z,49.10
2018-12-08T19:04:40.388Z,49.10
2018-12-08T19:07:07.468Z,49.70
2018-12-08T19:09:34.653Z,49.10
2018-12-08T19:12:01.761Z,49.10
2018-12-08T19:14:28.893Z,49.10
2018-12-08T19:16:55.994Z,49.10
2018-12-08T19:19:23.102Z,49.10
2018-12-08T19:21:50.200Z,49.10
2018-12-08T19:24:17.340Z,49.10
2018-12-08T19:26:44.452Z,49.10
2018-12-08T19:29:11.568Z,49.10
2018-12-08T19:31:38.683Z,49.10
2018-12-08T19:34:05.813Z,49.10
2018-12-08T19:36:32.894Z,49.10
2018-12-08T19:39:00.036Z,49.10
2018-12-08T19:41:27.138Z,49.10
2018-12-08T19:43:54.230Z,49.10
2018-12-08T19:46:21.323Z,49.10
2018-12-08T19:48:48.433Z,49.10
2018-12-08T19:51:15.535Z,49.10
2018-12-08T19:53:42.633Z,49.10
2018-12-08T19:56:09.752Z,49.00
2018-12-08T19:58:36.844Z,49.10
2018-12-08T20:01:03.938Z,49.10
2018-12-08T20:03:31.056Z,49.10
2018-12-08T20:05:58.252Z,49.10
2018-12-08T20:08:25.351Z,49.10
2018-12-08T20:10:52.475Z,49.10
2018-12-08T20:13:19.600Z,49.00
2018-12-08T20:15:46.716Z,49.10
2018-12-08T20:18:13.824Z,49.10
2018-12-08T20:20:40.929Z,49.10
2018-12-08T20:23:08.065Z,49.10
2018-12-08T20:25:35.195Z,49.10
2018-12-08T20:28:02.300Z,49.10
2018-12-08T20:30:29.426Z,49.00
2018-12-08T20:32:56.538Z,49.10
2018-12-08T20:35:23.670Z,49.00
2018-12-08T20:37:50.777Z,49.00
2018-12-08T20:40:17.865Z,49.10
2018-12-08T20:42:44.955Z,49.10
2018-12-08T20:45:12.072Z,49.10
2018-12-08T20:47:39.173Z,49.10
2018-12-08T20:50:06.925Z,49.10
2018-12-08T20:52:34.059Z,49.10
2018-12-08T20:55:01.182Z,49.00
2018-12-08T20:57:28.301Z,49.10
2018-12-08T20:59:55.402Z,49.10
2018-12-08T21:02:22.496Z,49.10
2018-12-08T21:04:49.621Z,49.10
2018-12-08T21:07:16.720Z,49.10
2018-12-08T21:09:43.809Z,49.10
2018-12-08T21:12:10.925Z,49.10
2018-12-08T21:14:38.042Z,49.10
2018-12-08T21:17:05.204Z,49.10
2018-12-08T21:19:32.271Z,49.10
2018-12-08T21:21:59.380Z,49.10
2018-12-08T21:24:26.476Z,49.10
2018-12-08T21:26:53.641Z,49.10
2018-12-08T21:29:20.716Z,49.10
2018-12-08T21:31:47.822Z,49.10
2018-12-08T21:34:14.932Z,49.00
2018-12-08T21:36:42.027Z,49.10
2018-12-08T21:39:09.140Z,49.10
2018-12-08T21:41:36.274Z,49.10
2018-12-08T21:44:03.360Z,49.10
2018-12-08T21:46:30.464Z,49.10
2018-12-08T21:48:57.560Z,49.10
2018-12-08T21:51:24.696Z,49.10
2018-12-08T21:53:51.788Z,49.10
2018-12-08T21:56:18.932Z,49.10
2018-12-08T21:58:46.057Z,49.10
2018-12-08T22:01:14.169Z,49.00
2018-12-08T22:03:40.331Z,49.00
2018-12-08T22:06:07.440Z,49.10
2018-12-08T22:08:34.540Z,49.00
2018-12-08T22:11:01.682Z,49.00
2018-12-08T22:13:28.796Z,49.10
2018-12-08T22:15:55.942Z,49.10
2018-12-08T22:18:23.056Z,49.10
2018-12-08T22:20:50.148Z,49.00
2018-12-08T22:23:17.252Z,49.00
2018-12-08T22:25:44.371Z,49.00
2018-12-08T22:28:11.480Z,49.10
2018-12-08T22:30:38.599Z,49.00
2018-12-08T22:33:05.696Z,49.00
2018-12-08T22:35:32.794Z,49.00
2018-12-08T22:37:59.904Z,49.10
2018-12-08T22:40:27.029Z,49.00
2018-12-08T22:42:54.200Z,49.00
2018-12-08T22:45:21.296Z,49.00
2018-12-08T22:47:48.400Z,49.00
2018-12-08T22:50:15.515Z,49.00
2018-12-08T22:52:42.648Z,49.00
2018-12-08T22:55:09.785Z,48.90
2018-12-08T22:57:36.898Z,48.90
2018-12-08T23:00:07.464Z,49.00
2018-12-08T23:02:34.552Z,49.00
2018-12-08T23:05:01.650Z,49.00
2018-12-08T23:07:28.741Z,49.00
2018-12-08T23:09:55.833Z,49.00
2018-12-08T23:12:22.932Z,49.00
2018-12-08T23:14:50.048Z,49.10
2018-12-08T23:17:17.155Z,49.00
2018-12-08T23:19:44.216Z,49.00
2018-12-08T23:22:11.340Z,49.00
2018-12-08T23:24:38.452Z,49.00
2018-12-08T23:27:05.568Z,49.00
2018-12-08T23:29:32.658Z,49.10
2018-12-08T23:31:59.781Z,49.00
2018-12-08T23:34:26.876Z,49.10
2018-12-08T23:36:53.961Z,49.10
2018-12-08T23:39:21.040Z,49.10
2018-12-08T23:41:48.133Z,49.10
2018-12-08T23:44:15.245Z,49.10
2018-12-08T23:46:42.345Z,49.10
2018-12-08T23:49:11.386Z,49.20
2018-12-08T23:51:36.600Z,49.20
2018-12-08T23:54:03.719Z,49.20
2018-12-08T23:56:30.801Z,49.20
2018-12-08T23:58:57.901Z,49.20
